Time;durP1;ratioP1;P1;durP2;ratioP2;P2;SDS_P1;SDS_P2;PMS_P1;PMS_P2;Temp;Humidity;BMP_temperature;BMP_pressure;BME280_temperature;BME280_humidity;BME280_pressure;Samples;Min_cycle;Max_cycle;Signal;HPM_P1;HPM_P2
2022/04/21 00:01:00;;;;;;;6.60;6.10;;;10.00;99.90;;;;;;5084270;28;20197;-66
2022/04/21 00:03:25;;;;;;;7.00;6.20;;;10.00;99.90;;;;;;5073237;28;20868;-66
2022/04/21 00:05:51;;;;;;;6.47;5.87;;;10.00;99.90;;;;;;5075574;28;20190;-65
2022/04/21 00:08:20;;;;;;;9.63;6.23;;;10.00;99.90;;;;;;5074478;28;20162;-65
2022/04/21 00:10:45;;;;;;;6.70;6.10;;;10.00;99.90;;;;;;5075297;28;20253;-65
2022/04/21 00:13:11;;;;;;;6.30;5.80;;;10.00;99.90;;;;;;5073950;28;20260;-65
2022/04/21 00:15:37;;;;;;;7.60;5.80;;;10.00;99.90;;;;;;5073424;28;20214;-65
2022/04/21 00:18:03;;;;;;;7.10;6.57;;;9.90;99.90;;;;;;5073702;28;20178;-65
2022/04/21 00:20:29;;;;;;;6.83;6.13;;;9.90;99.90;;;;;;5074987;28;20170;-65
2022/04/21 00:25:39;;;;;;;6.77;6.10;;;9.80;99.90;;;;;;5074722;28;20277;-65
2022/04/21 00:28:06;;;;;;;7.20;6.60;;;9.70;99.90;;;;;;5073883;28;20265;-65
2022/04/21 00:30:32;;;;;;;6.63;6.23;;;9.70;99.90;;;;;;5073401;28;20587;-65
2022/04/21 00:32:57;;;;;;;7.13;6.50;;;9.70;99.90;;;;;;5074635;28;20205;-65
2022/04/21 00:35:23;;;;;;;7.10;6.60;;;9.60;99.90;;;;;;5074355;28;20278;-65
2022/04/21 00:37:51;;;;;;;7.40;6.90;;;9.60;99.90;;;;;;5074794;28;20659;-66
2022/04/21 00:40:18;;;;;;;6.97;6.40;;;9.50;99.90;;;;;;5074095;28;20181;-66
2022/04/21 00:42:45;;;;;;;6.77;6.27;;;9.50;99.90;;;;;;5074698;28;20548;-66
2022/04/21 00:45:12;;;;;;;7.80;6.33;;;9.50;99.90;;;;;;5073930;28;20206;-66
2022/04/21 00:47:44;;;;;;;13.00;7.30;;;9.40;99.90;;;;;;5074739;28;20171;-66
2022/04/21 00:50:15;;;;;;;7.37;6.77;;;9.40;99.90;;;;;;5073887;28;20177;-66
2022/04/21 00:52:41;;;;;;;7.80;7.20;;;9.40;99.90;;;;;;5074597;28;20640;-66
2022/04/21 00:55:08;;;;;;;6.93;6.43;;;9.30;99.90;;;;;;5074192;28;20197;-66
2022/04/21 00:57:34;;;;;;;7.20;6.50;;;9.20;99.90;;;;;;5074388;28;20194;-66
2022/04/21 01:00:01;;;;;;;7.80;7.10;;;9.20;99.90;;;;;;5072706;28;20636;-66
2022/04/21 01:02:46;;;;;;;7.73;7.10;;;9.10;99.90;;;;;;5073965;28;20287;-66
2022/04/21 01:05:14;;;;;;;9.23;7.00;;;9.00;99.90;;;;;;5073399;28;20194;-66
2022/04/21 01:07:41;;;;;;;7.63;6.87;;;8.90;99.90;;;;;;5072551;28;20319;-66
2022/04/21 01:10:08;;;;;;;7.37;6.73;;;8.80;99.90;;;;;;5073966;28;20674;-66
2022/04/21 01:12:34;;;;;;;8.43;7.53;;;8.80;99.90;;;;;;5073783;28;20178;-66
2022/04/21 01:14:59;;;;;;;7.50;7.00;;;8.80;99.90;;;;;;5072788;28;20197;-66
2022/04/21 01:17:36;;;;;;;8.70;7.90;;;8.80;99.90;;;;;;5073842;28;20268;-66
2022/04/21 01:20:03;;;;;;;7.67;7.17;;;8.80;99.90;;;;;;5072338;28;20170;-66
2022/04/21 01:22:29;;;;;;;7.93;6.70;;;8.80;99.90;;;;;;5073354;28;20190;-66
2022/04/21 01:24:55;;;;;;;8.10;7.57;;;8.80;99.90;;;;;;5072097;28;20187;-65
2022/04/21 01:27:23;;;;;;;7.20;6.70;;;8.90;99.90;;;;;;5073267;28;20701;-65
2022/04/21 01:29:49;;;;;;;8.03;7.17;;;8.90;99.90;;;;;;5073559;28;20174;-66
2022/04/21 01:32:15;;;;;;;7.97;6.87;;;8.90;99.90;;;;;;5071691;28;20174;-66
2022/04/21 01:34:41;;;;;;;7.00;6.40;;;8.90;99.90;;;;;;5071635;28;20194;-67
2022/04/21 01:42:35;;;;;;;7.47;6.47;;;8.80;99.90;;;;;;5053236;28;20680;-66
2022/04/21 01:45:01;;;;;;;7.20;6.70;;;8.80;99.90;;;;;;5059475;28;20278;-66
2022/04/21 01:47:26;;;;;;;7.70;7.03;;;8.80;99.90;;;;;;5073539;28;20225;-65
2022/04/21 01:49:52;;;;;;;10.23;6.60;;;8.80;99.90;;;;;;5071998;28;20275;-66
2022/04/21 01:52:18;;;;;;;7.03;6.43;;;8.80;99.90;;;;;;5073016;28;20180;-65
2022/04/21 01:54:44;;;;;;;7.50;6.90;;;8.80;99.90;;;;;;5072555;28;20194;-66
2022/04/21 01:57:10;;;;;;;8.00;7.17;;;8.70;99.90;;;;;;5071592;28;20200;-65
2022/04/21 01:59:35;;;;;;;7.63;7.03;;;8.70;99.90;;;;;;5072991;28;20639;-66
2022/04/21 02:02:01;;;;;;;7.93;7.33;;;8.60;99.90;;;;;;5055109;28;20209;-66
2022/04/21 02:04:27;;;;;;;8.07;7.33;;;8.60;99.90;;;;;;5071447;28;20232;-66
2022/04/21 02:06:52;;;;;;;7.50;6.90;;;8.60;99.90;;;;;;5071501;28;20193;-65
2022/04/21 02:09:18;;;;;;;7.37;6.80;;;8.60;99.90;;;;;;5072824;28;20170;-65
2022/04/21 02:11:44;;;;;;;7.57;6.97;;;8.60;99.90;;;;;;5072806;28;20232;-66
2022/04/21 02:14:09;;;;;;;7.20;6.60;;;8.50;99.90;;;;;;5071072;28;20701;-67
2022/04/21 02:16:35;;;;;;;7.23;6.63;;;8.60;99.90;;;;;;5072271;28;20228;-65
2022/04/21 02:19:00;;;;;;;8.17;7.40;;;8.60;99.90;;;;;;5072648;28;20216;-65
2022/04/21 02:21:26;;;;;;;6.90;6.40;;;8.50;99.90;;;;;;5072426;28;20210;-66
2022/04/21 02:23:52;;;;;;;8.07;7.47;;;8.50;99.90;;;;;;5071328;28;20659;-66
2022/04/21 02:26:18;;;;;;;8.93;7.77;;;8.50;99.90;;;;;;5071164;28;20202;-66
2022/04/21 02:28:43;;;;;;;8.87;7.43;;;8.50;99.90;;;;;;5071494;28;20174;-65
2022/04/21 02:31:09;;;;;;;8.33;7.53;;;8.40;99.90;;;;;;5071330;28;20178;-66
2022/04/21 02:33:34;;;;;;;8.20;7.67;;;8.40;99.90;;;;;;5071381;28;20229;-67
2022/04/21 02:36:00;;;;;;;8.47;7.87;;;8.40;99.90;;;;;;5071960;28;20203;-66
2022/04/21 02:38:26;;;;;;;8.27;7.77;;;8.40;99.90;;;;;;5072894;28;20240;-67
2022/04/21 02:40:51;;;;;;;8.60;7.70;;;8.40;99.90;;;;;;5073538;28;20293;-68
2022/04/21 02:43:17;;;;;;;8.87;8.07;;;8.40;99.90;;;;;;5073241;28;20178;-68
2022/04/21 02:45:42;;;;;;;8.27;7.57;;;8.40;99.90;;;;;;5077830;28;20217;-67
2022/04/21 02:48:09;;;;;;;8.57;7.87;;;8.40;99.90;;;;;;5079910;28;20174;-67
2022/04/21 02:50:35;;;;;;;9.17;8.47;;;8.40;99.90;;;;;;5078740;28;20170;-67
2022/04/21 02:53:01;;;;;;;10.17;9.57;;;8.40;99.90;;;;;;5079738;28;20170;-67
2022/04/21 02:58:12;;;;;;;9.87;9.17;;;8.30;99.90;;;;;;5081984;28;20205;-67
2022/04/21 03:00:37;;;;;;;9.33;8.63;;;8.20;99.90;;;;;;5082526;28;20182;-67
2022/04/21 03:03:03;;;;;;;9.03;8.27;;;8.20;99.90;;;;;;5081875;28;20174;-67
2022/04/21 03:05:28;;;;;;;8.37;7.57;;;8.20;99.90;;;;;;5071100;28;20198;-66
2022/04/21 03:07:54;;;;;;;9.23;8.53;;;8.20;99.90;;;;;;5070561;28;20434;-67
2022/04/21 03:10:20;;;;;;;8.73;8.13;;;8.10;99.90;;;;;;5069977;28;20608;-66
2022/04/21 03:12:46;;;;;;;8.70;8.00;;;8.00;99.90;;;;;;5071699;28;20178;-66
2022/04/21 03:15:12;;;;;;;8.20;7.57;;;7.80;99.90;;;;;;5070828;28;20624;-66
2022/04/21 03:17:41;;;;;;;8.63;8.03;;;7.70;99.90;;;;;;5070267;28;20228;-66
2022/04/21 03:20:07;;;;;;;8.57;7.90;;;7.70;99.90;;;;;;5071353;28;20182;-66
2022/04/21 03:25:17;;;;;;;8.20;7.60;;;7.60;99.90;;;;;;5070814;28;20618;-66
2022/04/21 03:27:46;;;;;;;7.67;7.03;;;7.60;99.90;;;;;;5071406;28;20275;-66
2022/04/21 03:30:13;;;;;;;8.37;7.63;;;7.50;99.90;;;;;;5069956;28;20636;-66
2022/04/21 03:32:39;;;;;;;8.27;7.60;;;7.50;99.90;;;;;;5071145;28;20667;-66
2022/04/21 03:35:05;;;;;;;7.50;7.00;;;7.40;99.90;;;;;;5070948;28;20208;-66
2022/04/21 03:37:31;;;;;;;9.23;8.43;;;7.40;99.90;;;;;;5071811;28;20247;-67
2022/04/21 03:39:56;;;;;;;9.10;8.40;;;7.30;99.90;;;;;;5075587;28;20178;-66
2022/04/21 03:42:25;;;;;;;9.93;9.23;;;7.20;99.90;;;;;;5074939;28;20619;-66
2022/04/21 03:44:51;;;;;;;8.73;8.03;;;7.20;99.90;;;;;;5074180;28;20248;-65
2022/04/21 03:47:17;;;;;;;12.00;8.17;;;7.10;99.90;;;;;;5075174;28;20182;-65
2022/04/21 03:49:43;;;;;;;9.07;8.37;;;7.10;99.90;;;;;;5074292;28;20335;-66
2022/04/21 03:52:11;;;;;;;9.50;8.80;;;6.90;99.90;;;;;;5074984;28;20264;-66
2022/04/21 03:54:38;;;;;;;10.53;9.17;;;6.90;99.90;;;;;;5073738;28;20201;-65
2022/04/21 03:57:05;;;;;;;8.90;8.30;;;6.90;99.90;;;;;;5073913;28;20622;-65
2022/04/21 03:59:31;;;;;;;8.90;8.30;;;6.90;99.90;;;;;;5075220;28;20643;-65
2022/04/21 04:02:02;;;;;;;9.47;8.57;;;6.80;99.90;;;;;;5087317;28;20202;-67
2022/04/21 04:04:46;;;;;;;9.63;8.93;;;6.70;99.90;;;;;;5094848;28;20241;-68
2022/04/21 04:12:40;;;;;;;9.50;8.73;;;6.60;99.90;;;;;;5075236;28;20276;-65
2022/04/21 04:15:07;;;;;;;10.67;9.00;;;6.60;99.90;;;;;;5073479;28;20225;-65
2022/04/21 04:17:33;;;;;;;8.83;8.10;;;6.50;99.90;;;;;;5074986;28;20240;-66
2022/04/21 04:19:59;;;;;;;8.90;8.30;;;6.50;99.90;;;;;;5073597;28;20181;-66
2022/04/21 04:22:25;;;;;;;8.83;8.10;;;6.40;99.90;;;;;;5074399;28;20587;-66
2022/04/21 04:24:53;;;;;;;9.67;8.77;;;6.50;99.90;;;;;;5073170;28;20615;-66
2022/04/21 04:27:23;;;;;;;9.03;8.43;;;6.40;99.90;;;;;;5074454;28;20182;-67
2022/04/21 04:29:48;;;;;;;9.30;8.60;;;6.40;99.90;;;;;;5074912;28;20231;-65
2022/04/21 04:32:15;;;;;;;8.80;8.13;;;6.40;99.90;;;;;;5074321;28;20186;-66
2022/04/21 04:34:41;;;;;;;9.67;8.97;;;6.40;99.90;;;;;;5074589;28;20197;-66
2022/04/21 04:37:07;;;;;;;10.00;9.00;;;6.40;99.90;;;;;;5074533;28;20260;-65
2022/04/21 04:39:32;;;;;;;9.83;9.13;;;6.40;99.90;;;;;;5074205;28;20265;-66
2022/04/21 04:42:16;;;;;;;10.37;9.43;;;6.40;99.90;;;;;;5074316;28;20207;-66
2022/04/21 04:44:41;;;;;;;11.07;8.93;;;6.40;99.90;;;;;;5074173;28;20206;-66
2022/04/21 04:47:07;;;;;;;10.43;9.63;;;6.50;99.90;;;;;;5074320;28;20173;-66
2022/04/21 04:49:33;;;;;;;12.17;11.03;;;6.50;99.90;;;;;;5073275;28;20253;-66
2022/04/21 04:51:58;;;;;;;10.73;9.93;;;6.60;99.90;;;;;;5072980;28;20628;-66
2022/04/21 04:54:25;;;;;;;10.03;9.23;;;6.60;99.90;;;;;;5072165;28;20178;-66
2022/04/21 04:56:51;;;;;;;11.33;10.27;;;6.70;99.90;;;;;;5072577;28;20174;-66
2022/04/21 04:59:16;;;;;;;12.23;10.70;;;6.70;99.90;;;;;;5073859;28;20657;-66
2022/04/21 05:01:45;;;;;;;9.93;9.00;;;6.80;99.90;;;;;;5072776;28;20237;-66
2022/04/21 05:04:16;;;;;;;12.27;9.63;;;6.80;99.90;;;;;;5073543;28;20223;-67
2022/04/21 05:06:45;;;;;;;10.77;9.77;;;6.90;99.90;;;;;;5073725;28;20274;-67
2022/04/21 05:09:13;;;;;;;9.73;8.83;;;7.00;99.90;;;;;;5073559;28;20185;-66
2022/04/21 05:11:41;;;;;;;9.00;8.30;;;7.00;99.90;;;;;;5073793;28;20193;-66
2022/04/21 05:14:07;;;;;;;10.17;9.27;;;7.10;99.90;;;;;;5073873;28;20177;-66
2022/04/21 05:16:36;;;;;;;9.20;8.50;;;7.20;99.90;;;;;;5073106;28;20281;-66
2022/04/21 05:19:03;;;;;;;9.07;8.37;;;7.30;99.90;;;;;;5072389;28;20185;-66
2022/04/21 05:21:30;;;;;;;9.03;8.30;;;7.30;99.90;;;;;;5073335;28;20564;-66
2022/04/21 05:23:58;;;;;;;9.13;8.37;;;7.50;99.90;;;;;;5072292;28;20582;-66
2022/04/21 05:26:25;;;;;;;8.70;8.00;;;7.50;99.90;;;;;;5072857;28;20273;-66
2022/04/21 05:28:55;;;;;;;8.67;8.00;;;7.60;99.90;;;;;;5072307;28;20177;-66
2022/04/21 05:31:22;;;;;;;9.83;9.03;;;7.70;99.90;;;;;;5073108;28;20217;-67
2022/04/21 05:33:48;;;;;;;9.43;8.67;;;7.80;99.90;;;;;;5072459;28;20708;-66
2022/04/21 05:36:14;;;;;;;10.10;9.30;;;8.00;99.90;;;;;;5071055;28;20234;-67
2022/04/21 05:38:40;;;;;;;11.03;10.00;;;8.10;99.90;;;;;;5071944;28;20170;-66
2022/04/21 05:41:07;;;;;;;9.40;8.70;;;8.20;99.90;;;;;;5071668;28;20202;-65
2022/04/21 05:43:39;;;;;;;9.13;8.23;;;8.30;99.90;;;;;;5071684;28;20678;-66
2022/04/21 05:46:05;;;;;;;8.57;7.67;;;8.40;99.90;;;;;;5072981;28;20206;-66
2022/04/21 05:48:31;;;;;;;8.83;8.00;;;8.50;99.90;;;;;;5071549;28;20182;-67
2022/04/21 05:50:57;;;;;;;7.70;7.10;;;8.70;99.90;;;;;;5071758;28;20182;-67
2022/04/21 05:53:24;;;;;;;9.10;8.30;;;8.80;99.90;;;;;;5071289;28;20273;-67
2022/04/21 05:55:51;;;;;;;8.33;7.63;;;9.10;99.90;;;;;;5072950;28;20186;-66
2022/04/21 05:58:18;;;;;;;8.07;7.47;;;9.30;99.90;;;;;;5072778;28;20220;-67
2022/04/21 06:00:43;;;;;;;8.57;7.60;;;9.70;99.90;;;;;;5072538;28;20536;-68
2022/04/21 06:03:11;;;;;;;6.70;6.20;;;10.20;99.90;;;;;;5072710;28;20261;-67
2022/04/21 06:05:37;;;;;;;6.83;6.27;;;10.70;99.90;;;;;;5070834;28;20198;-67
2022/04/21 06:08:03;;;;;;;7.37;6.67;;;11.40;99.90;;;;;;5072611;28;20216;-67
2022/04/21 06:10:28;;;;;;;7.13;6.53;;;11.90;99.90;;;;;;5070951;28;20644;-68
2022/04/21 06:12:55;;;;;;;6.97;6.20;;;12.20;99.90;;;;;;5072887;28;20239;-67
2022/04/21 06:15:20;;;;;;;6.80;6.30;;;12.70;99.90;;;;;;5070454;28;20198;-67
2022/04/21 06:17:46;;;;;;;6.60;5.87;;;13.00;99.90;;;;;;5070999;28;20235;-66
2022/04/21 06:20:12;;;;;;;8.63;7.83;;;13.30;99.90;;;;;;5077696;28;20245;-67
2022/04/21 06:22:37;;;;;;;6.23;5.73;;;13.50;99.90;;;;;;5072250;28;20212;-66
2022/04/21 06:25:03;;;;;;;7.03;6.43;;;13.80;99.90;;;;;;5070173;28;20194;-68
2022/04/21 06:27:29;;;;;;;6.07;5.57;;;14.00;99.90;;;;;;5072009;28;20548;-67
2022/04/21 06:29:55;;;;;;;6.67;6.17;;;14.30;99.90;;;;;;5071729;28;20186;-66
2022/04/21 06:32:20;;;;;;;6.43;5.93;;;14.70;99.90;;;;;;5071895;28;20174;-65
2022/04/21 06:34:46;;;;;;;7.30;6.10;;;14.80;99.90;;;;;;5071620;28;20198;-67
2022/04/21 06:37:11;;;;;;;7.00;5.87;;;15.20;99.90;;;;;;5070753;28;20537;-68
2022/04/21 06:39:37;;;;;;;6.17;5.77;;;15.60;99.90;;;;;;5071786;28;20190;-67
2022/04/21 06:42:03;;;;;;;6.20;5.53;;;16.10;99.90;;;;;;5070231;28;20201;-65
2022/04/21 06:49:57;;;;;;;7.90;5.40;;;17.10;99.90;;;;;;5071768;28;20189;-65
2022/04/21 06:52:23;;;;;;;6.77;5.53;;;17.50;99.90;;;;;;5071433;28;20182;-67
2022/04/21 06:54:48;;;;;;;5.80;4.97;;;17.50;99.90;;;;;;5071517;28;20476;-67
2022/04/21 06:57:14;;;;;;;5.53;5.13;;;17.40;99.90;;;;;;5070158;28;20174;-67
2022/04/21 06:59:39;;;;;;;7.17;5.40;;;17.50;99.90;;;;;;5051698;28;20198;-66
2022/04/21 07:02:05;;;;;;;7.93;5.07;;;17.70;99.90;;;;;;5051716;28;20218;-67
2022/04/21 07:04:31;;;;;;;5.60;5.20;;;17.80;99.90;;;;;;5069991;28;20264;-66
2022/04/21 07:06:57;;;;;;;6.60;5.83;;;17.60;99.90;;;;;;5071681;28;20260;-65
2022/04/21 07:09:22;;;;;;;6.00;5.50;;;17.80;99.90;;;;;;5071836;28;20209;-69
2022/04/21 07:11:48;;;;;;;6.20;5.60;;;17.90;99.90;;;;;;5071280;28;20181;-66
2022/04/21 07:14:14;;;;;;;7.00;5.80;;;18.20;99.90;;;;;;5071299;28;20539;-66
2022/04/21 07:16:39;;;;;;;6.10;5.60;;;18.60;99.90;;;;;;5071283;28;20285;-66
2022/04/21 07:19:05;;;;;;;8.40;5.53;;;19.00;99.90;;;;;;5071633;28;20223;-67
2022/04/21 07:21:30;;;;;;;4.90;4.50;;;19.50;99.90;;;;;;5071295;28;20232;-66
2022/04/21 07:23:56;;;;;;;6.68;4.70;;;19.90;99.90;;;;;;5070150;28;20655;-66
2022/04/21 07:26:22;;;;;;;5.28;4.78;;;20.20;99.90;;;;;;5070235;28;20198;-66
2022/04/21 07:28:47;;;;;;;5.53;5.03;;;20.00;99.90;;;;;;5071483;28;20249;-66
2022/04/21 07:31:13;;;;;;;5.95;5.22;;;19.90;99.90;;;;;;5071211;28;20181;-66
2022/04/21 07:33:39;;;;;;;5.78;5.38;;;19.80;99.90;;;;;;5071562;28;20217;-66
2022/04/21 07:36:05;;;;;;;7.45;5.32;;;19.90;99.90;;;;;;5069903;28;20190;-66
2022/04/21 07:38:31;;;;;;;6.32;5.35;;;19.70;99.90;;;;;;5071068;28;20216;-66
2022/04/21 07:40:57;;;;;;;5.65;5.15;;;19.50;99.90;;;;;;5069794;28;20287;-66
2022/04/21 07:43:23;;;;;;;5.93;5.43;;;19.10;99.90;;;;;;5071146;28;20166;-66
2022/04/21 07:45:49;;;;;;;5.60;5.20;;;18.70;99.90;;;;;;5070976;28;20209;-67
2022/04/21 07:48:15;;;;;;;5.93;5.43;;;18.60;99.90;;;;;;5070895;28;20235;-66
2022/04/21 07:50:41;;;;;;;5.85;5.38;;;18.80;99.90;;;;;;5071133;28;20635;-67
2022/04/21 07:53:13;;;;;;;5.90;5.47;;;18.70;99.90;;;;;;5070911;28;20181;-66
2022/04/21 07:55:39;;;;;;;6.28;4.93;;;18.70;99.90;;;;;;5070553;28;20189;-66
2022/04/21 07:58:06;;;;;;;5.35;5.05;;;18.90;99.90;;;;;;5072518;28;20166;-66
2022/04/21 08:00:32;;;;;;;6.22;5.82;;;18.60;99.90;;;;;;5084629;28;20178;-66
2022/04/21 08:02:58;;;;;;;6.53;5.53;;;18.40;99.90;;;;;;5085361;28;20224;-66
2022/04/21 08:05:23;;;;;;;5.87;5.43;;;18.30;99.90;;;;;;5082082;28;20206;-67
2022/04/21 08:07:49;;;;;;;5.70;5.22;;;18.40;99.90;;;;;;5071868;28;20280;-66
2022/04/21 08:10:15;;;;;;;5.55;5.15;;;18.70;99.90;;;;;;5070880;28;20543;-67
2022/04/21 08:12:46;;;;;;;7.00;6.00;;;19.00;99.90;;;;;;5070888;28;20659;-66
2022/04/21 08:15:21;;;;;;;5.25;4.85;;;19.40;99.90;;;;;;5084757;28;20212;-66
2022/04/21 08:17:47;;;;;;;5.40;4.97;;;19.50;99.90;;;;;;5078433;28;20190;-67
2022/04/21 08:20:13;;;;;;;6.25;4.82;;;19.50;99.90;;;;;;5070609;28;20174;-66
2022/04/21 08:22:39;;;;;;;7.82;4.70;;;19.60;99.90;;;;;;5071021;28;20205;-67
2022/04/21 08:33:19;;;;;;;4.90;4.50;;;20.10;99.90;;;;;;5074429;28;20196;-68
2022/04/21 08:35:48;;;;;;;5.28;4.75;;;20.50;99.90;;;;;;5073890;28;20714;-67
2022/04/21 08:38:14;;;;;;;5.03;4.60;;;20.60;99.90;;;;;;5072642;28;20183;-67
2022/04/21 08:40:52;;;;;;;10.35;4.55;;;20.20;99.90;;;;;;5073951;28;20598;-67
2022/04/21 08:43:18;;;;;;;5.00;4.60;;;19.90;99.90;;;;;;5074057;28;20185;-66
2022/04/21 08:45:45;;;;;;;5.40;4.70;;;20.10;99.90;;;;;;5073611;28;20585;-67
2022/04/21 08:48:12;;;;;;;5.05;4.72;;;20.00;99.90;;;;;;5074140;28;20567;-66
2022/04/21 08:50:38;;;;;;;4.95;4.55;;;20.30;99.90;;;;;;5073938;28;20437;-67
2022/04/21 08:53:05;;;;;;;6.15;4.90;;;20.50;99.90;;;;;;5074134;28;20186;-66
2022/04/21 08:55:32;;;;;;;4.80;4.40;;;20.90;99.90;;;;;;5073284;28;20651;-66
2022/04/21 08:57:58;;;;;;;4.00;3.70;;;21.10;99.90;;;;;;5073957;28;20197;-67
2022/04/21 09:00:24;;;;;;;4.32;3.83;;;21.70;99.90;;;;;;5073711;28;20171;-67
2022/04/21 09:02:50;;;;;;;4.50;3.92;;;22.20;99.90;;;;;;5073771;28;20251;-67
2022/04/21 09:05:16;;;;;;;4.20;3.90;;;22.90;99.90;;;;;;5073655;28;20194;-67
2022/04/21 09:07:47;;;;;;;4.40;4.00;;;22.70;97.80;;;;;;5073678;28;20635;-67
2022/04/21 09:10:15;;;;;;;4.80;4.50;;;22.70;99.00;;;;;;5073739;28;20178;-66
2022/04/21 09:12:52;;;;;;;4.10;3.80;;;22.50;98.30;;;;;;5073519;28;20173;-66
2022/04/21 09:15:19;;;;;;;4.65;4.30;;;22.30;97.90;;;;;;5073359;28;20728;-66
2022/04/21 09:17:49;;;;;;;4.15;3.80;;;22.10;98.70;;;;;;5073779;28;20647;-65
2022/04/21 09:20:21;;;;;;;4.65;3.72;;;21.60;95.80;;;;;;5055693;28;20185;-66
2022/04/21 09:22:49;;;;;;;4.38;4.07;;;21.40;96.20;;;;;;5073189;28;20251;-66
2022/04/21 09:25:15;;;;;;;3.80;3.60;;;20.60;94.40;;;;;;5071889;28;20225;-67
2022/04/21 09:27:45;;;;;;;3.53;3.22;;;20.50;95.00;;;;;;5073507;28;20194;-66
2022/04/21 09:30:13;;;;;;;3.95;3.55;;;20.70;95.00;;;;;;5073610;28;20178;-66
2022/04/21 09:32:59;;;;;;;3.92;3.47;;;20.80;92.40;;;;;;5071835;28;20170;-66
2022/04/21 09:35:33;;;;;;;3.38;3.10;;;21.00;92.90;;;;;;5072201;28;20671;-67
2022/04/21 09:38:01;;;;;;;3.95;3.30;;;21.50;92.00;;;;;;5073118;28;20174;-66
2022/04/21 09:40:29;;;;;;;8.40;3.50;;;21.80;90.60;;;;;;5073284;28;20166;-66
2022/04/21 09:43:02;;;;;;;3.60;3.30;;;22.10;90.10;;;;;;5073417;28;20202;-66
2022/04/21 09:48:29;;;;;;;3.63;3.20;;;22.30;92.20;;;;;;5073312;28;20522;-66
2022/04/21 09:51:07;;;;;;;3.55;3.25;;;22.40;88.40;;;;;;5073229;28;20316;-66
2022/04/21 09:54:05;;;;;;;3.25;3.05;;;22.00;83.30;;;;;;5072130;28;20210;-66
2022/04/21 09:56:34;;;;;;;3.63;3.20;;;21.80;85.30;;;;;;5071525;28;20193;-66
2022/04/21 09:59:02;;;;;;;3.40;3.20;;;22.20;87.60;;;;;;5073860;28;20170;-66
2022/04/21 10:01:29;;;;;;;4.88;3.10;;;23.00;90.50;;;;;;5085050;28;20198;-66
2022/04/21 10:03:55;;;;;;;3.15;2.92;;;23.30;88.70;;;;;;5072865;28;20171;-66
2022/04/21 10:06:21;;;;;;;3.10;2.90;;;23.50;84.90;;;;;;5071174;28;20621;-66
2022/04/21 10:08:49;;;;;;;3.15;2.92;;;23.50;86.20;;;;;;5072626;28;20174;-65
2022/04/21 10:11:23;;;;;;;3.95;3.67;;;23.80;83.30;;;;;;5071212;28;20921;-65
2022/04/21 10:13:52;;;;;;;3.20;3.00;;;24.10;84.70;;;;;;5071231;28;20264;-65
2022/04/21 10:16:17;;;;;;;3.22;3.03;;;24.20;82.60;;;;;;5072252;28;20247;-66
2022/04/21 10:18:47;;;;;;;3.30;3.10;;;24.20;78.80;;;;;;5070733;28;20268;-66
2022/04/21 10:21:18;;;;;;;3.47;3.25;;;23.90;83.70;;;;;;5072414;28;20233;-66
2022/04/21 10:23:44;;;;;;;3.40;3.20;;;23.50;77.90;;;;;;5072340;28;20170;-66
2022/04/21 10:26:10;;;;;;;6.35;3.55;;;23.00;81.70;;;;;;5070833;28;20194;-66
2022/04/21 10:28:39;;;;;;;3.45;3.25;;;22.70;83.10;;;;;;5072272;28;20173;-66
2022/04/21 10:31:30;;;;;;;4.25;3.30;;;22.60;77.60;;;;;;5052294;28;20637;-65
2022/04/21 10:33:57;;;;;;;4.20;3.40;;;22.20;82.80;;;;;;5054823;28;20182;-66
2022/04/21 10:36:41;;;;;;;3.92;3.63;;;22.10;79.10;;;;;;5071380;28;20683;-66
2022/04/21 10:39:12;;;;;;;3.75;3.45;;;22.00;81.70;;;;;;5072105;28;20281;-66
2022/04/21 10:41:41;;;;;;;3.50;3.30;;;21.80;79.90;;;;;;5072457;28;20202;-66
2022/04/21 10:44:25;;;;;;;3.60;3.30;;;21.80;81.50;;;;;;5071770;28;20551;-65
2022/04/21 10:47:36;;;;;;;4.68;3.60;;;22.40;86.60;;;;;;5070151;28;20632;-66
2022/04/21 10:50:02;;;;;;;4.53;3.38;;;22.50;86.40;;;;;;5072014;28;20261;-65
2022/04/21 10:58:33;;;;;;;4.47;3.80;;;21.90;80.40;;;;;;5071907;28;20216;-66
2022/04/21 11:01:10;;;;;;;4.00;3.70;;;21.80;82.90;;;;;;5070057;28;20666;-66
2022/04/21 11:03:37;;;;;;;4.18;3.88;;;21.70;85.00;;;;;;5070087;28;20181;-66
2022/04/21 11:06:09;;;;;;;4.90;4.50;;;21.40;85.40;;;;;;5071239;28;20554;-66
2022/04/21 11:08:35;;;;;;;5.00;4.70;;;21.20;81.80;;;;;;5071785;28;20178;-66
2022/04/21 11:11:01;;;;;;;4.28;3.88;;;21.00;81.60;;;;;;5071689;28;20169;-66
2022/04/21 11:13:50;;;;;;;4.88;4.53;;;20.70;86.60;;;;;;5071682;28;20177;-66
2022/04/21 11:16:45;;;;;;;7.47;3.95;;;20.40;83.20;;;;;;5071086;28;20194;-66
2022/04/21 11:19:25;;;;;;;6.30;4.45;;;20.40;86.60;;;;;;5071349;28;20170;-67
2022/04/21 11:21:54;;;;;;;4.07;3.88;;;20.10;90.40;;;;;;5071063;28;20202;-66
2022/04/21 11:24:20;;;;;;;4.47;4.07;;;19.80;88.70;;;;;;5071497;28;20253;-66
2022/04/21 11:26:56;;;;;;;5.70;5.30;;;19.70;86.80;;;;;;5069641;28;20320;-66
2022/04/21 11:29:22;;;;;;;5.80;5.30;;;19.70;89.00;;;;;;5070354;28;20185;-66
2022/04/21 11:31:54;;;;;;;4.72;4.32;;;19.50;89.80;;;;;;5069803;28;20647;-66
2022/04/21 11:34:24;;;;;;;6.23;5.77;;;19.70;88.70;;;;;;5071121;28;20194;-66
2022/04/21 11:36:53;;;;;;;4.70;4.30;;;19.30;90.10;;;;;;5069401;28;20170;-66
2022/04/21 11:39:19;;;;;;;4.83;4.33;;;19.20;91.50;;;;;;5070923;28;20178;-66
2022/04/21 11:41:47;;;;;;;4.68;4.10;;;18.90;91.50;;;;;;5071220;28;20396;-66
2022/04/21 11:44:21;;;;;;;4.57;4.27;;;18.70;90.40;;;;;;5070624;28;20181;-66
2022/04/21 11:46:46;;;;;;;5.13;4.73;;;18.60;91.70;;;;;;5069576;28;20178;-65
2022/04/21 11:49:12;;;;;;;5.47;4.47;;;18.80;92.70;;;;;;5070945;28;20631;-66
2022/04/21 11:51:38;;;;;;;5.43;5.00;;;18.90;91.50;;;;;;5071764;28;20666;-66
2022/04/21 11:54:08;;;;;;;4.40;4.03;;;19.00;92.20;;;;;;5070922;28;20178;-65
2022/04/21 11:56:35;;;;;;;4.57;4.28;;;19.30;91.70;;;;;;5069814;28;20240;-65
2022/04/21 11:59:10;;;;;;;4.95;4.55;;;19.60;94.70;;;;;;5072131;28;20173;-65
2022/04/21 12:07:10;;;;;;;5.13;4.63;;;19.80;91.50;;;;;;5056438;28;20339;-65
2022/04/21 12:09:40;;;;;;;4.75;4.45;;;19.60;93.60;;;;;;5077955;28;20189;-66
2022/04/21 12:12:08;;;;;;;5.38;4.30;;;19.70;94.70;;;;;;5093085;28;20181;-66
2022/04/21 12:14:35;;;;;;;4.60;4.30;;;19.80;91.70;;;;;;5094542;28;20181;-66
2022/04/21 12:17:04;;;;;;;4.72;4.43;;;19.70;92.90;;;;;;5093606;28;20174;-65
2022/04/21 12:19:39;;;;;;;4.93;4.53;;;19.90;92.50;;;;;;5080723;28;20182;-66
2022/04/21 12:22:09;;;;;;;6.03;5.53;;;20.30;93.80;;;;;;5075143;28;20202;-66
2022/04/21 12:24:40;;;;;;;7.03;5.68;;;20.10;92.10;;;;;;5073357;28;20283;-65
2022/04/21 12:27:28;;;;;;;5.15;4.65;;;20.00;93.00;;;;;;5075138;28;20557;-66
2022/04/21 12:29:58;;;;;;;4.50;4.20;;;19.80;93.00;;;;;;5075187;28;20578;-66
2022/04/21 12:32:31;;;;;;;5.88;5.15;;;19.90;94.70;;;;;;5074810;28;20517;-65
2022/04/21 12:34:58;;;;;;;5.45;4.95;;;20.10;92.70;;;;;;5074557;28;20312;-66
2022/04/21 12:37:32;;;;;;;5.30;4.85;;;19.90;94.80;;;;;;5073086;28;20188;-66
2022/04/21 12:40:03;;;;;;;5.05;4.75;;;20.10;96.30;;;;;;5074802;28;20174;-66
2022/04/21 12:42:28;;;;;;;5.47;4.80;;;20.20;93.60;;;;;;5074151;28;20198;-66
2022/04/21 12:44:54;;;;;;;5.82;5.32;;;20.50;93.30;;;;;;5074152;28;20205;-66
2022/04/21 12:47:22;;;;;;;6.15;5.65;;;21.10;93.90;;;;;;5073058;28;20171;-65
2022/04/21 12:50:05;;;;;;;7.85;4.80;;;21.00;95.00;;;;;;5073865;28;20182;-65
2022/04/21 12:52:40;;;;;;;4.57;4.10;;;21.40;94.00;;;;;;5073745;28;20546;-65
2022/04/21 12:55:22;;;;;;;5.10;4.60;;;21.70;93.10;;;;;;5074604;28;20196;-65
2022/04/21 12:58:11;;;;;;;4.75;4.32;;;21.80;93.90;;;;;;5074450;28;20189;-66
2022/04/21 13:00:45;;;;;;;5.22;4.70;;;22.20;94.90;;;;;;5073075;28;20207;-64
2022/04/21 13:03:13;;;;;;;4.88;4.32;;;22.20;92.60;;;;;;5073986;28;20190;-65
2022/04/21 13:05:50;;;;;;;5.00;4.60;;;22.40;95.60;;;;;;5073473;28;20217;-64
2022/04/21 13:08:19;;;;;;;5.00;4.60;;;22.40;92.00;;;;;;5074055;28;20178;-64
2022/04/21 13:10:45;;;;;;;5.00;4.60;;;22.40;94.50;;;;;;5070221;28;20272;-66
2022/04/21 13:13:11;;;;;;;5.97;4.47;;;22.70;94.10;;;;;;5073678;28;20265;-65
2022/04/21 13:15:36;;;;;;;4.60;4.20;;;23.10;95.50;;;;;;5073847;28;20197;-66
2022/04/21 13:18:02;;;;;;;4.10;3.80;;;23.30;95.50;;;;;;5073657;28;20182;-65
2022/04/21 13:23:12;;;;;;;5.10;4.63;;;22.30;91.40;;;;;;5073868;28;20718;-66
2022/04/21 13:25:38;;;;;;;7.97;5.30;;;22.20;93.30;;;;;;5073406;28;20186;-65
2022/04/21 13:28:04;;;;;;;5.57;5.18;;;21.90;93.40;;;;;;5074179;28;20219;-66
2022/04/21 13:30:30;;;;;;;7.35;6.85;;;21.40;93.50;;;;;;5073986;28;20563;-66
2022/04/21 13:35:42;;;;;;;5.43;4.95;;;20.40;93.00;;;;;;5074052;28;20239;-66
2022/04/21 13:38:08;;;;;;;7.68;5.15;;;19.90;93.50;;;;;;5073626;28;20190;-66
2022/04/21 13:40:34;;;;;;;5.87;5.37;;;19.60;94.20;;;;;;5072535;28;20182;-66
2022/04/21 13:43:00;;;;;;;5.73;5.40;;;19.20;93.80;;;;;;5070931;28;20260;-65
2022/04/21 13:45:26;;;;;;;6.32;5.78;;;19.30;95.30;;;;;;5074106;28;20210;-66
2022/04/21 13:47:52;;;;;;;8.80;6.13;;;19.50;95.60;;;;;;5075135;28;20197;-65